Time;durP1;ratioP1;P1;durP2;ratioP2;P2;SDS_P1;SDS_P2;PMS_P1;PMS_P2;Temp;Humidity;BMP_temperature;BMP_pressure;BME280_temperature;BME280_humidity;BME280_pressure;Samples;Min_cycle;Max_cycle;Signal;HPM_P1;HPM_P2
2023/06/23 00:01:20;;;;;;;0.40;0.40;;;17.30;99.90;;;;;;5093299;28;20051;-61
2023/06/23 00:03:46;;;;;;;0.57;0.52;;;18.00;99.90;;;;;;5093262;28;20758;-61
2023/06/23 00:06:13;;;;;;;0.57;0.57;;;18.00;99.90;;;;;;5093365;28;20522;-61
2023/06/23 00:08:39;;;;;;;1.40;1.30;;;18.20;99.90;;;;;;5093301;28;20048;-61
2023/06/23 00:11:06;;;;;;;;;;;18.00;99.90;;;;;;5093668;28;20055;-62
2023/06/23 00:13:35;;;;;;;0.73;0.73;;;17.20;99.90;;;;;;5093054;28;19963;-61
2023/06/23 00:16:05;;;;;;;0.90;0.90;;;17.30;99.90;;;;;;5093214;28;20051;-61
2023/06/23 00:18:39;;;;;;;0.70;0.63;;;17.30;99.90;;;;;;5093231;28;20060;-62
2023/06/23 00:21:07;;;;;;;1.10;0.77;;;17.70;99.90;;;;;;5093233;28;20383;-60
2023/06/23 00:23:33;;;;;;;0.80;0.63;;;17.50;99.90;;;;;;5092883;28;20083;-61
2023/06/23 00:26:00;;;;;;;0.47;0.47;;;17.50;99.90;;;;;;5093280;28;20048;-61
2023/06/23 00:28:26;;;;;;;0.28;0.28;;;18.10;99.90;;;;;;5093136;28;20048;-60
2023/06/23 00:30:55;;;;;;;1.38;1.05;;;17.50;99.90;;;;;;5092891;28;20044;-61
2023/06/23 00:33:21;;;;;;;0.35;0.35;;;18.40;99.90;;;;;;5092825;28;20044;-60
2023/06/23 00:35:47;;;;;;;0.50;0.50;;;17.80;99.90;;;;;;5092806;28;20894;-60
2023/06/23 00:38:13;;;;;;;1.75;1.17;;;17.50;99.90;;;;;;5092936;28;20040;-61
2023/06/23 00:40:41;;;;;;;0.63;0.63;;;17.50;99.90;;;;;;5092616;28;20131;-61
2023/06/23 00:43:07;;;;;;;0.93;0.93;;;17.40;99.90;;;;;;5092580;28;20044;-61
2023/06/23 00:45:33;;;;;;;0.63;0.63;;;18.00;99.90;;;;;;5092559;28;20058;-61
2023/06/23 00:48:04;;;;;;;0.80;0.60;;;17.70;99.90;;;;;;5091250;28;20101;-61
2023/06/23 00:50:30;;;;;;;0.73;0.50;;;17.60;99.90;;;;;;5092425;28;20048;-61
2023/06/23 00:52:56;;;;;;;1.00;0.85;;;17.90;99.90;;;;;;5092248;28;20048;-62
2023/06/23 00:55:24;;;;;;;0.35;0.35;;;17.10;99.90;;;;;;5092189;28;20070;-61
2023/06/23 00:57:51;;;;;;;0.38;0.38;;;17.10;99.90;;;;;;5092327;28;20127;-61
2023/06/23 01:00:18;;;;;;;0.50;0.50;;;18.00;99.90;;;;;;5092230;28;20056;-61
2023/06/23 01:02:49;;;;;;;1.23;0.47;;;17.80;99.90;;;;;;5092000;28;20144;-61
2023/06/23 01:05:19;;;;;;;2.22;2.03;;;17.30;99.90;;;;;;5092114;28;20148;-61
2023/06/23 01:08:19;;;;;;;0.30;0.30;;;17.40;99.90;;;;;;5092081;28;20044;-61
2023/06/23 01:11:03;;;;;;;0.55;0.40;;;18.00;99.90;;;;;;5091933;28;20483;-61
2023/06/23 01:13:38;;;;;;;0.38;0.38;;;17.90;99.90;;;;;;5092011;28;20083;-61
2023/06/23 01:16:14;;;;;;;1.33;0.73;;;17.30;99.90;;;;;;5091862;28;20093;-61
2023/06/23 01:18:45;;;;;;;;;;;17.50;99.90;;;;;;5092503;28;20063;-60
2023/06/23 01:21:17;;;;;;;0.90;0.70;;;17.40;99.90;;;;;;5091894;28;19927;-61
2023/06/23 01:24:00;;;;;;;0.40;0.40;;;17.80;99.90;;;;;;5091896;28;20044;-61
2023/06/23 01:26:37;;;;;;;0.52;0.52;;;17.50;99.90;;;;;;5091668;28;20127;-60
2023/06/23 01:29:09;;;;;;;0.65;0.50;;;17.50;99.90;;;;;;5091101;28;20043;-61
2023/06/23 01:31:46;;;;;;;1.10;1.00;;;17.20;99.90;;;;;;5091676;28;20793;-60
2023/06/23 01:34:20;;;;;;;0.40;0.40;;;17.80;99.90;;;;;;5091944;28;20046;-61
2023/06/23 01:36:52;;;;;;;0.68;0.45;;;17.60;99.90;;;;;;5091698;28;20144;-61
2023/06/23 01:39:20;;;;;;;0.73;0.73;;;17.40;99.90;;;;;;5091397;28;20136;-61
2023/06/23 01:42:03;;;;;;;0.40;0.40;;;17.00;99.90;;;;;;5091475;28;20443;-61
2023/06/23 01:44:31;;;;;;;0.43;0.43;;;17.40;99.90;;;;;;5091461;28;20044;-61
2023/06/23 01:47:01;;;;;;;0.47;0.47;;;17.70;99.90;;;;;;5091425;28;20052;-61
2023/06/23 01:49:31;;;;;;;0.28;0.28;;;17.30;99.90;;;;;;5091230;28;20444;-61
2023/06/23 01:51:57;;;;;;;0.20;0.20;;;17.40;99.90;;;;;;5091506;28;20108;-60
2023/06/23 01:54:24;;;;;;;0.98;0.90;;;17.30;99.90;;;;;;5091422;28;20040;-61
2023/06/23 01:56:52;;;;;;;0.43;0.43;;;17.40;99.90;;;;;;5091458;28;20050;-61
2023/06/23 01:59:19;;;;;;;0.68;0.68;;;17.60;99.90;;;;;;5091264;28;20429;-61
2023/06/23 02:01:47;;;;;;;0.47;0.47;;;17.40;99.90;;;;;;5091187;28;20048;-61
2023/06/23 02:04:14;;;;;;;0.25;0.25;;;17.10;99.90;;;;;;5090737;28;20522;-61
2023/06/23 02:06:42;;;;;;;0.32;0.32;;;17.60;99.90;;;;;;5091314;28;20071;-61
2023/06/23 02:09:14;;;;;;;0.77;0.50;;;17.00;99.90;;;;;;5091249;28;20137;-64
2023/06/23 02:11:41;;;;;;;0.20;0.20;;;16.90;99.90;;;;;;5091203;28;20125;-61
2023/06/23 02:14:09;;;;;;;0.60;0.60;;;17.40;99.90;;;;;;5091106;28;20079;-61
2023/06/23 02:16:35;;;;;;;0.20;0.20;;;16.90;99.90;;;;;;5090973;28;20411;-61
2023/06/23 02:19:03;;;;;;;0.28;0.28;;;17.40;99.90;;;;;;5091018;28;20044;-62
2023/06/23 02:21:31;;;;;;;0.75;0.75;;;17.40;99.90;;;;;;5091336;28;20376;-61
2023/06/23 02:24:01;;;;;;;0.98;0.30;;;17.10;99.90;;;;;;5090795;28;20542;-61
2023/06/23 02:26:27;;;;;;;0.30;0.30;;;17.20;99.90;;;;;;5091073;28;20092;-61
2023/06/23 02:28:54;;;;;;;;;;;17.60;99.90;;;;;;5091320;28;20078;-61
2023/06/23 02:31:22;;;;;;;0.38;0.30;;;16.90;99.90;;;;;;5091010;28;20278;-61
2023/06/23 02:33:49;;;;;;;0.43;0.43;;;17.10;99.90;;;;;;5091308;28;20480;-60
2023/06/23 02:36:19;;;;;;;0.30;0.30;;;17.50;99.90;;;;;;5091070;28;20082;-61
2023/06/23 02:38:47;;;;;;;0.95;0.68;;;16.80;99.90;;;;;;5091037;28;20109;-61
2023/06/23 02:41:15;;;;;;;0.30;0.25;;;17.10;99.90;;;;;;5094563;28;20090;-61
2023/06/23 02:43:50;;;;;;;0.30;0.30;;;17.30;99.90;;;;;;5094557;28;20510;-61
2023/06/23 02:46:19;;;;;;;0.43;0.43;;;17.40;99.90;;;;;;5095024;28;20040;-61
2023/06/23 02:48:48;;;;;;;1.75;0.98;;;19.20;99.90;;;;;;5095119;28;20043;-61
2023/06/23 02:51:23;;;;;;;0.30;0.28;;;16.60;99.90;;;;;;5094739;28;20078;-61
2023/06/23 02:54:05;;;;;;;0.77;0.77;;;17.50;99.90;;;;;;5094689;28;20113;-61
2023/06/23 02:56:34;;;;;;;0.60;0.30;;;16.60;99.90;;;;;;5094511;28;20044;-61
2023/06/23 02:59:06;;;;;;;1.13;1.05;;;17.20;99.90;;;;;;5094673;28;20129;-61
2023/06/23 03:01:39;;;;;;;0.40;0.40;;;17.10;99.90;;;;;;5094671;28;20048;-61
2023/06/23 03:04:04;;;;;;;1.20;1.20;;;16.90;99.90;;;;;;5094179;28;20510;-62
2023/06/23 03:06:32;;;;;;;;;;;16.90;99.90;;;;;;5094888;28;20134;-61
2023/06/23 03:08:58;;;;;;;1.02;0.55;;;16.90;99.90;;;;;;5094291;28;19920;-60
2023/06/23 03:11:24;;;;;;;;;;;16.60;99.90;;;;;;5094976;28;20051;-62
2023/06/23 03:13:49;;;;;;;0.75;0.75;;;16.80;99.90;;;;;;5094637;28;20292;-61
2023/06/23 03:16:44;;;;;;;1.27;0.85;;;16.80;99.90;;;;;;5094278;28;20051;-60
2023/06/23 03:19:16;;;;;;;0.40;0.40;;;16.80;99.90;;;;;;5092800;28;20404;-61
2023/06/23 03:21:45;;;;;;;0.52;0.52;;;16.50;99.90;;;;;;5094226;28;20052;-61
2023/06/23 03:24:13;;;;;;;3.25;0.40;;;17.10;99.90;;;;;;5094112;28;20040;-61
2023/06/23 03:26:45;;;;;;;1.75;1.27;;;16.30;99.90;;;;;;5092757;28;20048;-61
2023/06/23 03:29:12;;;;;;;1.23;0.60;;;16.70;99.90;;;;;;5094027;28;20082;-61
2023/06/23 03:31:41;;;;;;;0.40;0.40;;;16.40;99.90;;;;;;5093864;28;20436;-61
2023/06/23 03:34:07;;;;;;;0.30;0.30;;;17.00;99.90;;;;;;5093802;28;20138;-61
2023/06/23 03:36:35;;;;;;;;;;;13.80;99.90;;;;;;5094420;28;20062;-61
2023/06/23 03:39:24;;;;;;;0.40;0.40;;;16.80;99.90;;;;;;5093865;28;19920;-61
2023/06/23 03:41:50;;;;;;;0.22;0.22;;;16.50;99.90;;;;;;5093757;28;20131;-61
2023/06/23 03:44:33;;;;;;;2.08;1.70;;;16.90;99.90;;;;;;5093528;28;20056;-61
2023/06/23 03:47:13;;;;;;;0.40;0.40;;;16.60;99.90;;;;;;5093968;28;20051;-60
2023/06/23 03:49:44;;;;;;;0.47;0.47;;;16.70;99.90;;;;;;5093688;28;20044;-60
2023/06/23 03:52:12;;;;;;;1.25;0.40;;;16.40;99.90;;;;;;5093004;28;20056;-60
2023/06/23 03:54:40;;;;;;;0.30;0.30;;;16.40;99.90;;;;;;5093389;28;20108;-61
2023/06/23 03:57:10;;;;;;;0.40;0.40;;;16.40;99.90;;;;;;5093355;28;20385;-60
2023/06/23 03:59:38;;;;;;;0.43;0.43;;;16.40;99.90;;;;;;5093523;28;20071;-61
2023/06/23 04:02:05;;;;;;;2.10;0.75;;;16.20;99.90;;;;;;5093404;28;20075;-61
2023/06/23 04:04:32;;;;;;;0.20;0.20;;;16.30;99.90;;;;;;5093136;28;20056;-61
2023/06/23 04:06:59;;;;;;;0.22;0.22;;;16.70;99.90;;;;;;5093237;28;20108;-60
2023/06/23 04:09:27;;;;;;;0.60;0.60;;;16.20;99.90;;;;;;5093141;28;20109;-61
2023/06/23 04:11:55;;;;;;;1.55;0.88;;;16.30;99.90;;;;;;5093347;28;20059;-61
2023/06/23 04:14:22;;;;;;;0.20;0.20;;;16.00;99.90;;;;;;5093196;28;20051;-60
2023/06/23 04:16:51;;;;;;;0.20;0.20;;;16.20;99.90;;;;;;5093116;28;20047;-61
2023/06/23 04:19:19;;;;;;;0.40;0.40;;;17.00;99.90;;;;;;5093024;28;20388;-60
2023/06/23 04:21:46;;;;;;;0.52;0.25;;;16.90;99.90;;;;;;5092999;28;20056;-61
2023/06/23 04:24:14;;;;;;;0.28;0.28;;;16.50;99.90;;;;;;5092930;28;20043;-61
2023/06/23 04:26:42;;;;;;;0.35;0.35;;;16.80;99.90;;;;;;5093287;28;20051;-61
2023/06/23 04:29:10;;;;;;;1.58;0.63;;;16.40;99.90;;;;;;5092979;28;20054;-60
2023/06/23 04:31:38;;;;;;;0.88;0.85;;;16.50;99.90;;;;;;5092789;28;20513;-61
2023/06/23 04:34:03;;;;;;;1.35;0.63;;;16.40;99.90;;;;;;5092732;28;20040;-61
2023/06/23 04:36:37;;;;;;;;;;;16.40;99.90;;;;;;5092955;28;20044;-61
2023/06/23 04:39:27;;;;;;;1.52;1.00;;;16.40;99.90;;;;;;5092834;28;19920;-61
2023/06/23 04:41:58;;;;;;;0.40;0.40;;;16.50;99.90;;;;;;5092593;28;20411;-60
2023/06/23 04:44:27;;;;;;;0.63;0.63;;;18.30;99.90;;;;;;5092548;28;20055;-60
2023/06/23 04:46:57;;;;;;;0.20;0.20;;;16.60;99.90;;;;;;5092408;28;20048;-61
2023/06/23 04:49:27;;;;;;;0.65;0.65;;;17.20;99.90;;;;;;5092856;28;20047;-61
2023/06/23 04:51:54;;;;;;;0.73;0.73;;;16.70;99.90;;;;;;5092499;28;20491;-61
2023/06/23 04:54:28;;;;;;;0.65;0.65;;;16.90;99.90;;;;;;5092410;28;20044;-61
2023/06/23 04:57:01;;;;;;;0.75;0.50;;;16.40;99.90;;;;;;5092355;28;20052;-60
2023/06/23 04:59:33;;;;;;;0.32;0.32;;;16.90;99.90;;;;;;5092198;28;20048;-60
2023/06/23 05:02:02;;;;;;;0.80;0.80;;;17.10;99.90;;;;;;5092384;28;20452;-60
2023/06/23 05:04:30;;;;;;;0.47;0.45;;;14.40;99.90;;;;;;5091031;28;20147;-60
2023/06/23 05:06:57;;;;;;;0.50;0.50;;;16.60;99.90;;;;;;5092125;28;20134;-60
2023/06/23 05:09:24;;;;;;;0.60;0.60;;;16.90;99.90;;;;;;5092160;28;20040;-61
2023/06/23 05:11:52;;;;;;;0.68;0.55;;;17.10;99.90;;;;;;5091860;28;20048;-60
2023/06/23 05:14:19;;;;;;;0.32;0.32;;;16.80;99.90;;;;;;5092052;28;20048;-60
2023/06/23 05:16:47;;;;;;;0.32;0.32;;;17.20;99.90;;;;;;5091881;28;20499;-61
2023/06/23 05:19:15;;;;;;;0.35;0.35;;;17.20;99.90;;;;;;5091970;28;20051;-61
2023/06/23 05:21:44;;;;;;;0.52;0.52;;;17.10;99.90;;;;;;5091848;28;20084;-61
2023/06/23 05:24:11;;;;;;;0.30;0.30;;;17.40;99.90;;;;;;5091633;28;20040;-61
2023/06/23 05:26:39;;;;;;;0.47;0.47;;;17.50;99.90;;;;;;5091687;28;20462;-61
2023/06/23 05:29:09;;;;;;;0.43;0.43;;;17.40;99.90;;;;;;5091810;28;20095;-61
2023/06/23 05:31:38;;;;;;;1.17;0.63;;;17.30;99.90;;;;;;5091817;28;20044;-61
2023/06/23 05:34:07;;;;;;;0.35;0.35;;;17.70;99.90;;;;;;5091534;28;20353;-61
2023/06/23 05:36:36;;;;;;;0.20;0.20;;;17.70;99.90;;;;;;5091571;28;20408;-61
2023/06/23 05:39:04;;;;;;;0.55;0.55;;;17.90;99.90;;;;;;5091427;28;20039;-60
2023/06/23 05:41:30;;;;;;;0.50;0.50;;;17.50;99.90;;;;;;5091582;28;20084;-60
2023/06/23 05:43:56;;;;;;;;;;;17.90;99.90;;;;;;5091746;28;20083;-60
2023/06/23 05:46:24;;;;;;;0.30;0.30;;;18.20;99.90;;;;;;5091483;28;19924;-60
2023/06/23 05:49:02;;;;;;;1.10;0.95;;;18.00;99.90;;;;;;5091396;28;20109;-61
2023/06/23 05:51:30;;;;;;;0.55;0.55;;;18.50;99.90;;;;;;5091331;28;20048;-60
2023/06/23 05:53:59;;;;;;;0.35;0.35;;;18.10;99.90;;;;;;5091573;28;20087;-61
2023/06/23 05:56:33;;;;;;;0.50;0.50;;;18.20;99.90;;;;;;5091385;28;20058;-61
2023/06/23 05:59:02;;;;;;;0.68;0.68;;;18.40;99.90;;;;;;5091352;28;20047;-61
2023/06/23 06:01:33;;;;;;;0.75;0.73;;;18.70;99.90;;;;;;5091397;28;20131;-61
2023/06/23 06:04:12;;;;;;;0.50;0.50;;;18.60;99.90;;;;;;5090944;28;20165;-60
2023/06/23 06:06:39;;;;;;;0.40;0.40;;;18.80;99.90;;;;;;5091372;28;20052;-61
2023/06/23 06:09:09;;;;;;;0.32;0.32;;;18.40;99.90;;;;;;5091327;28;20070;-62
2023/06/23 06:11:38;;;;;;;0.45;0.45;;;18.80;99.90;;;;;;5091297;28;20051;-61
2023/06/23 06:14:09;;;;;;;0.20;0.20;;;18.40;99.90;;;;;;5090931;28;20048;-61
2023/06/23 06:16:36;;;;;;;0.10;0.10;;;18.50;99.90;;;;;;5091064;28;20131;-61
2023/06/23 06:19:04;;;;;;;0.20;0.20;;;18.30;99.90;;;;;;5091291;28;20047;-61
2023/06/23 06:21:32;;;;;;;0.45;0.40;;;18.20;99.90;;;;;;5091373;28;20051;-60
2023/06/23 06:24:00;;;;;;;0.10;0.10;;;18.40;99.90;;;;;;5091175;28;20052;-60
2023/06/23 06:26:26;;;;;;;0.47;0.47;;;18.90;99.90;;;;;;5091137;28;20140;-61
2023/06/23 06:28:54;;;;;;;0.85;0.85;;;18.90;99.90;;;;;;5091013;28;20051;-61
2023/06/23 06:31:22;;;;;;;0.20;0.20;;;18.40;99.90;;;;;;5091199;28;20078;-60
2023/06/23 06:33:53;;;;;;;0.43;0.30;;;18.90;99.90;;;;;;5091280;28;20171;-61
2023/06/23 06:36:22;;;;;;;0.50;0.50;;;19.00;99.90;;;;;;5091240;28;20048;-60
2023/06/23 06:38:50;;;;;;;1.15;0.50;;;19.20;99.90;;;;;;5090958;28;20044;-60
2023/06/23 06:41:17;;;;;;;0.57;0.50;;;19.30;99.90;;;;;;5090830;28;20048;-60
2023/06/23 06:43:44;;;;;;;0.52;0.45;;;19.50;99.90;;;;;;5090649;28;20051;-61
2023/06/23 06:46:11;;;;;;;0.38;0.38;;;19.70;99.90;;;;;;5091053;28;20491;-61
2023/06/23 06:48:38;;;;;;;0.20;0.20;;;19.70;99.90;;;;;;5090962;28;20136;-61
2023/06/23 06:51:06;;;;;;;0.65;0.55;;;19.70;99.90;;;;;;5090864;28;20130;-61
2023/06/23 06:53:32;;;;;;;0.25;0.25;;;19.80;99.90;;;;;;5090816;28;20131;-61
2023/06/23 06:55:59;;;;;;;0.30;0.30;;;20.10;99.90;;;;;;5090752;28;20155;-61
2023/06/23 06:58:25;;;;;;;0.65;0.52;;;19.90;99.90;;;;;;5090636;28;20093;-60
2023/06/23 07:00:53;;;;;;;0.28;0.28;;;19.80;99.90;;;;;;5090895;28;20043;-61
2023/06/23 07:03:19;;;;;;;0.82;0.82;;;19.70;99.90;;;;;;5090580;28;20109;-62
2023/06/23 07:05:45;;;;;;;0.60;0.60;;;20.10;99.90;;;;;;5090754;28;20051;-61
2023/06/23 07:08:10;;;;;;;0.45;0.45;;;20.30;99.90;;;;;;5090706;28;20122;-61
2023/06/23 07:10:36;;;;;;;1.55;1.20;;;20.20;99.90;;;;;;5090537;28;20054;-60
2023/06/23 07:13:03;;;;;;;0.98;0.43;;;20.10;99.90;;;;;;5090897;28;20094;-61
2023/06/23 07:15:29;;;;;;;0.50;0.50;;;20.10;99.90;;;;;;5090719;28;20044;-61
2023/06/23 07:17:55;;;;;;;0.40;0.40;;;20.20;99.90;;;;;;5090712;28;20431;-61
2023/06/23 07:20:21;;;;;;;0.40;0.40;;;20.20;99.90;;;;;;5090656;28;20127;-61
2023/06/23 07:22:46;;;;;;;0.80;0.80;;;20.00;99.90;;;;;;5090458;28;20105;-61
2023/06/23 07:25:12;;;;;;;0.30;0.30;;;20.60;99.90;;;;;;5090442;28;20043;-62
2023/06/23 07:27:38;;;;;;;0.45;0.45;;;20.60;99.90;;;;;;5093114;28;20499;-62
2023/06/23 07:30:04;;;;;;;0.70;0.70;;;20.60;99.90;;;;;;5094237;28;20044;-61
2023/06/23 07:32:31;;;;;;;0.43;0.40;;;20.00;99.90;;;;;;5094135;28;20056;-61
2023/06/23 07:34:56;;;;;;;0.40;0.40;;;20.30;99.90;;;;;;5094008;28;20403;-61
2023/06/23 07:37:22;;;;;;;0.50;0.50;;;20.70;99.90;;;;;;5093863;28;20054;-62
2023/06/23 07:39:48;;;;;;;0.90;0.80;;;20.40;99.90;;;;;;5092560;28;20044;-61
2023/06/23 07:42:14;;;;;;;0.30;0.22;;;20.60;99.90;;;;;;5093801;28;20126;-61
2023/06/23 07:44:40;;;;;;;0.28;0.28;;;20.80;99.90;;;;;;5093978;28;20036;-61
2023/06/23 07:47:06;;;;;;;0.35;0.35;;;20.60;99.90;;;;;;5093944;28;20044;-61
2023/06/23 07:49:32;;;;;;;0.40;0.40;;;20.80;99.90;;;;;;5093956;28;20048;-62
2023/06/23 07:52:00;;;;;;;0.50;0.50;;;20.70;99.90;;;;;;5093907;28;20123;-61
2023/06/23 07:54:29;;;;;;;0.43;0.43;;;20.70;99.90;;;;;;5093766;28;20075;-61
2023/06/23 07:56:56;;;;;;;0.40;0.40;;;20.90;99.90;;;;;;5094019;28;20415;-60
2023/06/23 07:59:24;;;;;;;0.88;0.57;;;20.90;99.90;;;;;;5093947;28;20048;-62
2023/06/23 08:01:50;;;;;;;0.80;0.80;;;20.90;99.90;;;;;;5093816;28;20052;-61
2023/06/23 08:04:15;;;;;;;0.28;0.28;;;21.00;99.90;;;;;;5093431;28;20051;-61
2023/06/23 08:06:41;;;;;;;0.30;0.30;;;20.90;99.90;;;;;;5093503;28;20056;-61
2023/06/23 08:09:07;;;;;;;0.57;0.57;;;21.10;99.90;;;;;;5093310;28;20060;-61
2023/06/23 08:11:32;;;;;;;1.13;0.60;;;21.00;99.90;;;;;;5093737;28;20044;-63
2023/06/23 08:14:00;;;;;;;0.47;0.47;;;21.10;99.90;;;;;;5093630;28;20076;-62
2023/06/23 08:16:26;;;;;;;0.75;0.75;;;21.40;99.90;;;;;;5093641;28;20161;-61
2023/06/23 08:18:52;;;;;;;1.50;0.50;;;21.30;99.90;;;;;;5093312;28;20162;-61
2023/06/23 08:21:18;;;;;;;0.22;0.20;;;21.50;99.90;;;;;;5093140;28;20048;-62
2023/06/23 08:23:45;;;;;;;0.50;0.50;;;21.30;99.90;;;;;;5092897;28;20048;-61
2023/06/23 08:26:11;;;;;;;0.20;0.20;;;21.70;99.90;;;;;;5093228;28;20396;-61
2023/06/23 08:28:36;;;;;;;1.83;0.35;;;21.40;99.90;;;;;;5093023;28;20040;-61
2023/06/23 08:31:02;;;;;;;0.30;0.30;;;21.20;99.90;;;;;;5092964;28;20044;-61
2023/06/23 08:33:28;;;;;;;1.17;0.63;;;21.30;99.90;;;;;;5092860;28;20150;-62
2023/06/23 08:35:54;;;;;;;2.17;0.85;;;21.50;99.90;;;;;;5092770;28;20131;-62
2023/06/23 08:38:19;;;;;;;1.05;0.70;;;20.90;99.90;;;;;;5092508;28;20372;-61
2023/06/23 08:40:47;;;;;;;0.47;0.40;;;21.00;99.90;;;;;;5092832;28;20166;-60
2023/06/23 08:43:13;;;;;;;0.77;0.70;;;20.90;99.90;;;;;;5092610;28;20052;-60
2023/06/23 08:45:43;;;;;;;1.17;0.30;;;21.40;99.90;;;;;;5092670;28;20062;-61
2023/06/23 08:48:09;;;;;;;0.35;0.35;;;21.30;99.90;;;;;;5092601;28;20052;-61
2023/06/23 08:50:38;;;;;;;0.30;0.30;;;21.40;99.90;;;;;;5092453;28;20052;-61
2023/06/23 08:53:07;;;;;;;0.63;0.55;;;21.60;99.90;;;;;;5092325;28;20127;-61
2023/06/23 08:55:33;;;;;;;0.30;0.30;;;21.70;99.90;;;;;;5092495;28;20121;-61
2023/06/23 08:58:01;;;;;;;0.10;0.10;;;21.50;99.90;;;;;;5092294;28;20492;-61
2023/06/23 09:00:27;;;;;;;0.45;0.30;;;21.50;99.90;;;;;;5092259;28;20407;-60
2023/06/23 09:02:57;;;;;;;0.30;0.30;;;21.90;99.90;;;;;;5091897;28;20048;-61
2023/06/23 09:05:23;;;;;;;1.00;0.77;;;22.00;99.90;;;;;;5092082;28;20059;-61
2023/06/23 09:07:49;;;;;;;1.17;0.35;;;22.00;99.90;;;;;;5092326;28;20044;-61
2023/06/23 09:10:17;;;;;;;0.20;0.20;;;22.00;99.90;;;;;;5090913;28;20069;-60
2023/06/23 09:13:07;;;;;;;0.45;0.45;;;22.10;99.90;;;;;;5092290;28;20044;-60
2023/06/23 09:15:34;;;;;;;0.38;0.38;;;22.10;99.90;;;;;;5092099;28;20059;-62
2023/06/23 09:18:03;;;;;;;0.20;0.20;;;22.00;99.90;;;;;;5091854;28;20091;-62
2023/06/23 09:20:30;;;;;;;0.40;0.40;;;21.90;99.90;;;;;;5092124;28;20052;-61
2023/06/23 09:22:57;;;;;;;0.13;0.13;;;22.00;99.90;;;;;;5090609;28;20072;-61
2023/06/23 09:25:44;;;;;;;0.50;0.47;;;21.90;99.90;;;;;;5091962;28;20377;-61
2023/06/23 09:28:28;;;;;;;;;;;22.20;99.90;;;;;;5092276;28;20050;-62
2023/06/23 09:30:57;;;;;;;0.52;0.35;;;22.40;99.90;;;;;;5091614;28;20461;-61
2023/06/23 09:33:24;;;;;;;0.40;0.40;;;22.40;99.90;;;;;;5091854;28;20533;-62
2023/06/23 09:35:54;;;;;;;0.22;0.22;;;22.30;99.90;;;;;;5091743;28;20043;-61
2023/06/23 09:38:26;;;;;;;0.43;0.32;;;22.40;99.90;;;;;;5091682;28;20101;-61
2023/06/23 09:41:08;;;;;;;0.13;0.13;;;22.30;99.90;;;;;;5091535;28;20506;-61
2023/06/23 09:43:52;;;;;;;1.15;0.28;;;22.30;99.90;;;;;;5091621;28;20177;-62
2023/06/23 09:46:19;;;;;;;1.13;0.77;;;22.50;99.90;;;;;;5091539;28;20048;-62
2023/06/23 09:48:49;;;;;;;0.20;0.20;;;22.20;99.90;;;;;;5091370;28;20119;-62
2023/06/23 09:51:15;;;;;;;1.77;0.90;;;22.20;99.90;;;;;;5091409;28;20055;-62
2023/06/23 09:53:42;;;;;;;0.50;0.50;;;22.20;99.90;;;;;;5091739;28;20123;-62
2023/06/23 09:56:17;;;;;;;0.70;0.70;;;22.40;99.90;;;;;;5091598;28;20052;-61
2023/06/23 09:58:44;;;;;;;0.37;0.37;;;22.40;99.90;;;;;;5091528;28;20044;-61
2023/06/23 10:01:13;;;;;;;0.50;0.50;;;22.20;99.90;;;;;;5091266;28;20284;-61
2023/06/23 10:03:52;;;;;;;0.88;0.88;;;21.90;99.90;;;;;;5091209;28;20060;-61
2023/06/23 10:06:34;;;;;;;0.60;0.60;;;22.10;99.90;;;;;;5091450;28;20109;-61
2023/06/23 10:09:02;;;;;;;0.93;0.88;;;22.40;99.90;;;;;;5091608;28;20048;-62
2023/06/23 10:11:39;;;;;;;0.32;0.32;;;22.30;99.90;;;;;;5091562;28;20036;-60
2023/06/23 10:14:14;;;;;;;1.75;0.63;;;22.40;99.90;;;;;;5091332;28;20048;-62
2023/06/23 10:16:43;;;;;;;0.60;0.60;;;22.20;99.90;;;;;;5091478;28;20447;-61
2023/06/23 10:19:09;;;;;;;0.82;0.82;;;22.50;99.90;;;;;;5090195;28;20059;-60
2023/06/23 10:21:36;;;;;;;0.40;0.40;;;22.00;99.90;;;;;;5091111;28;20051;-61
2023/06/23 10:24:05;;;;;;;0.50;0.50;;;22.20;99.90;;;;;;5091067;28;20443;-62
2023/06/23 10:26:33;;;;;;;0.88;0.88;;;22.00;99.90;;;;;;5091018;28;20052;-62
2023/06/23 10:29:06;;;;;;;0.60;0.60;;;20.10;99.90;;;;;;5090926;28;20052;-62
2023/06/23 10:31:34;;;;;;;0.88;0.55;;;22.00;99.90;;;;;;5091222;28;20072;-62
2023/06/23 10:34:01;;;;;;;0.95;0.43;;;21.90;99.90;;;;;;5091044;28;20048;-61
2023/06/23 10:36:30;;;;;;;0.93;0.82;;;21.90;99.90;;;;;;5090994;28;20364;-61
2023/06/23 10:39:00;;;;;;;0.47;0.47;;;21.90;99.90;;;;;;5090878;28;20144;-61
2023/06/23 10:41:27;;;;;;;0.75;0.57;;;22.10;99.90;;;;;;5090865;28;20106;-61
2023/06/23 10:43:56;;;;;;;0.57;0.57;;;21.80;99.90;;;;;;5090945;28;20083;-61
2023/06/23 10:46:23;;;;;;;0.57;0.57;;;22.10;99.90;;;;;;5090908;28;20044;-62
2023/06/23 10:48:50;;;;;;;5.38;3.13;;;22.00;99.90;;;;;;5090838;28;20047;-60
2023/06/23 10:51:16;;;;;;;2.17;1.40;;;22.20;99.90;;;;;;5090778;28;20048;-61
2023/06/23 10:53:58;;;;;;;0.43;0.43;;;22.10;99.90;;;;;;5090786;28;20087;-60
2023/06/23 10:56:32;;;;;;;0.80;0.40;;;21.90;99.90;;;;;;5091000;28;20131;-61
2023/06/23 10:58:58;;;;;;;0.57;0.57;;;21.80;99.90;;;;;;5090821;28;20728;-60
2023/06/23 11:01:26;;;;;;;1.40;1.08;;;22.00;99.90;;;;;;5090043;28;20056;-62
2023/06/23 11:03:56;;;;;;;0.52;0.52;;;21.80;99.90;;;;;;5094572;28;20065;-61
2023/06/23 11:06:34;;;;;;;0.90;0.90;;;22.10;99.90;;;;;;5094408;28;20399;-61
2023/06/23 11:09:01;;;;;;;3.55;0.93;;;21.60;99.90;;;;;;5094752;28;20083;-61
2023/06/23 11:11:34;;;;;;;0.30;0.30;;;22.30;99.90;;;;;;5094537;28;20044;-61
2023/06/23 11:14:00;;;;;;;0.47;0.47;;;22.30;99.90;;;;;;5094405;28;20411;-61
2023/06/23 11:16:31;;;;;;;7.28;1.05;;;22.40;99.90;;;;;;5094302;28;20051;-60
2023/06/23 11:18:58;;;;;;;1.85;0.43;;;22.40;99.90;;;;;;5094326;28;20051;-60
2023/06/23 11:21:27;;;;;;;0.57;0.52;;;22.50;99.90;;;;;;5094403;28;20087;-61
2023/06/23 11:24:08;;;;;;;0.65;0.65;;;22.20;99.90;;;;;;5094164;28;20511;-61
2023/06/23 11:26:33;;;;;;;0.47;0.47;;;22.10;99.90;;;;;;5094294;28;20109;-61
2023/06/23 11:29:00;;;;;;;0.47;0.47;;;22.10;99.90;;;;;;5094290;28;20048;-62
2023/06/23 11:31:29;;;;;;;0.40;0.40;;;22.40;99.90;;;;;;5093912;28;20048;-60
2023/06/23 11:34:02;;;;;;;0.13;0.13;;;22.00;99.90;;;;;;5094191;28;20090;-61
2023/06/23 11:36:29;;;;;;;0.73;0.73;;;22.90;99.90;;;;;;5094023;28;20048;-60
2023/06/23 11:38:56;;;;;;;0.40;0.40;;;22.70;99.90;;;;;;5093944;28;20080;-61
2023/06/23 11:41:27;;;;;;;0.40;0.40;;;22.90;99.90;;;;;;5093841;28;20051;-61
2023/06/23 11:44:00;;;;;;;0.85;0.60;;;22.70;99.90;;;;;;5093541;28;20101;-60
2023/06/23 11:46:30;;;;;;;0.38;0.38;;;22.60;99.90;;;;;;5093965;28;20048;-60
2023/06/23 11:48:56;;;;;;;0.40;0.40;;;22.50;99.90;;;;;;5093691;28;20177;-60
2023/06/23 11:51:21;;;;;;;0.38;0.38;;;22.50;99.90;;;;;;5093651;28;20052;-61
2023/06/23 11:53:51;;;;;;;0.45;0.45;;;22.70;99.90;;;;;;5093554;28;20396;-61
2023/06/23 11:56:19;;;;;;;0.22;0.22;;;22.70;99.90;;;;;;5093485;28;20087;-60
2023/06/23 11:58:52;;;;;;;0.95;0.55;;;22.90;99.90;;;;;;5093410;28;20047;-61
2023/06/23 12:01:19;;;;;;;0.77;0.77;;;23.00;99.90;;;;;;5093451;28;20051;-61
2023/06/23 12:03:49;;;;;;;0.40;0.40;;;23.10;99.90;;;;;;5093499;28;20130;-61
2023/06/23 12:06:17;;;;;;;0.47;0.47;;;23.10;99.90;;;;;;5093428;28;20496;-60
2023/06/23 12:08:43;;;;;;;0.47;0.45;;;24.50;99.90;;;;;;5093248;28;20048;-62
2023/06/23 12:11:09;;;;;;;1.00;0.90;;;22.80;99.90;;;;;;5093068;28;20055;-61
2023/06/23 12:13:38;;;;;;;0.40;0.40;;;23.00;99.90;;;;;;5092905;28;20082;-61
2023/06/23 12:16:05;;;;;;;0.32;0.32;;;23.00;99.90;;;;;;5091901;28;20051;-61
2023/06/23 12:18:32;;;;;;;0.00;0.00;;;23.10;99.90;;;;;;5093151;28;20407;-62
2023/06/23 12:21:01;;;;;;;0.80;0.80;;;23.00;99.90;;;;;;5092964;28;20124;-61
2023/06/23 12:23:31;;;;;;;0.35;0.35;;;23.10;99.90;;;;;;5092848;28;20138;-62
2023/06/23 12:25:58;;;;;;;1.95;1.30;;;22.90;99.90;;;;;;5093118;28;20079;-62
2023/06/23 12:28:29;;;;;;;0.75;0.73;;;23.10;99.90;;;;;;5093011;28;20381;-61
2023/06/23 12:30:55;;;;;;;0.63;0.63;;;23.10;99.90;;;;;;5092964;28;20056;-62
2023/06/23 12:33:27;;;;;;;0.20;0.20;;;23.10;99.90;;;;;;5092785;28;20164;-62
2023/06/23 12:36:02;;;;;;;0.60;0.17;;;23.10;99.90;;;;;;5092656;28;20052;-62
2023/06/23 12:38:30;;;;;;;0.95;0.85;;;23.00;99.90;;;;;;5092837;28;20056;-62
2023/06/23 12:41:12;;;;;;;0.10;0.10;;;23.10;99.90;;;;;;5091616;28;20403;-62
2023/06/23 12:43:39;;;;;;;0.40;0.40;;;23.20;99.90;;;;;;5092614;28;20048;-61
2023/06/23 12:46:04;;;;;;;0.47;0.47;;;23.30;99.90;;;;;;5092574;28;20047;-62
2023/06/23 12:48:30;;;;;;;0.80;0.80;;;23.20;99.90;;;;;;5092365;28;20352;-61
2023/06/23 12:50:58;;;;;;;0.60;0.47;;;23.40;99.90;;;;;;5092542;28;20056;-61
2023/06/23 12:53:24;;;;;;;0.55;0.52;;;23.20;99.90;;;;;;5092520;28;20058;-61
2023/06/23 12:55:50;;;;;;;0.32;0.32;;;23.10;99.90;;;;;;5092384;28;20040;-62
2023/06/23 12:58:16;;;;;;;0.17;0.17;;;23.00;99.90;;;;;;5092181;28;20521;-61